Time;durP1;ratioP1;P1;durP2;ratioP2;P2;SDS_P1;SDS_P2;PMS_P1;PMS_P2;Temp;Humidity;BMP_temperature;BMP_pressure;BME280_temperature;BME280_humidity;BME280_pressure;Samples;Min_cycle;Max_cycle;Signal;HPM_P1;HPM_P2
2021/07/22 00:02:38;;;;;;;7.57;5.93;;;22.00;57.20;;;;;;5187562;27;27459;-59
2021/07/22 00:05:23;;;;;;;11.10;5.90;;;22.00;57.60;;;;;;5187504;27;27603;-59
2021/07/22 00:08:13;;;;;;;8.27;6.03;;;22.00;57.50;;;;;;5169376;27;27447;-59
2021/07/22 00:10:58;;;;;;;8.02;5.10;;;21.90;57.50;;;;;;5188212;27;27947;-59
2021/07/22 00:13:42;;;;;;;8.95;5.38;;;21.90;58.10;;;;;;5154180;27;27360;-59
2021/07/22 00:16:27;;;;;;;7.38;6.00;;;21.90;57.40;;;;;;5187319;27;27364;-59
2021/07/22 00:19:12;;;;;;;8.23;5.65;;;21.90;57.40;;;;;;5186798;27;27025;-58
2021/07/22 00:21:57;;;;;;;10.80;5.75;;;21.90;57.70;;;;;;5187803;27;27426;-59
2021/07/22 00:24:42;;;;;;;7.45;5.25;;;21.80;57.70;;;;;;5187055;27;27342;-59
2021/07/22 00:27:26;;;;;;;10.75;6.00;;;21.80;57.60;;;;;;5187753;27;27446;-59
2021/07/22 00:30:11;;;;;;;8.93;5.43;;;21.80;57.90;;;;;;5168706;27;27492;-58
2021/07/22 00:32:57;;;;;;;8.65;5.90;;;21.80;58.10;;;;;;5187695;27;27369;-58
2021/07/22 00:35:42;;;;;;;9.18;5.45;;;21.70;57.90;;;;;;5183549;27;27402;-59
2021/07/22 00:38:27;;;;;;;8.10;4.95;;;21.70;58.10;;;;;;5187122;27;27432;-59
2021/07/22 00:41:12;;;;;;;7.72;5.72;;;21.70;57.90;;;;;;5187666;27;27387;-59
2021/07/22 00:43:57;;;;;;;8.68;5.25;;;21.70;58.00;;;;;;5187578;27;27869;-59
2021/07/22 00:46:42;;;;;;;9.70;4.78;;;21.60;58.20;;;;;;5171533;27;27349;-58
2021/07/22 00:49:28;;;;;;;8.68;4.90;;;21.60;58.30;;;;;;5183676;27;27331;-59
2021/07/22 00:52:16;;;;;;;11.43;5.95;;;21.50;58.20;;;;;;5183303;27;27370;-58
2021/07/22 00:55:01;;;;;;;6.63;4.90;;;21.50;58.40;;;;;;5153741;27;28066;-59
2021/07/22 00:57:46;;;;;;;7.47;5.70;;;21.50;58.30;;;;;;5187573;27;27456;-58
2021/07/22 01:00:31;;;;;;;5.55;4.57;;;21.50;58.40;;;;;;5168683;27;27384;-58
2021/07/22 01:03:16;;;;;;;7.25;5.10;;;21.40;58.50;;;;;;5187447;27;27384;-58
2021/07/22 01:06:00;;;;;;;10.90;5.85;;;21.40;58.60;;;;;;5185355;27;27360;-59
2021/07/22 01:08:45;;;;;;;8.65;5.70;;;21.40;58.80;;;;;;5153855;27;27459;-59
2021/07/22 01:11:39;;;;;;;8.15;5.50;;;21.30;58.80;;;;;;5169495;27;27325;-58
2021/07/22 01:14:23;;;;;;;6.25;4.97;;;21.30;58.90;;;;;;5153808;27;27324;-58
2021/07/22 01:17:38;;;;;;;8.15;4.97;;;21.30;58.80;;;;;;5187038;27;27437;-59
2021/07/22 01:20:24;;;;;;;10.15;5.40;;;21.20;58.80;;;;;;5171294;27;27602;-58
2021/07/22 01:23:11;;;;;;;6.15;5.07;;;21.20;59.00;;;;;;5187030;27;27334;-59
2021/07/22 01:26:15;;;;;;;13.80;5.88;;;21.20;59.20;;;;;;5183576;27;27389;-59
2021/07/22 01:29:00;;;;;;;7.55;5.53;;;21.20;59.20;;;;;;5189749;27;27334;-59
2021/07/22 01:31:46;;;;;;;5.57;4.65;;;21.10;59.20;;;;;;5190620;27;27396;-59
2021/07/22 01:34:31;;;;;;;7.45;5.68;;;21.10;59.30;;;;;;5186688;27;27514;-59
2021/07/22 01:37:16;;;;;;;7.60;5.72;;;21.10;59.30;;;;;;5186256;27;27584;-59
2021/07/22 01:40:02;;;;;;;7.30;5.82;;;21.10;59.40;;;;;;5189353;27;27439;-59
2021/07/22 01:42:47;;;;;;;12.00;5.93;;;21.10;59.40;;;;;;5171754;27;27470;-59
2021/07/22 01:45:33;;;;;;;9.80;5.05;;;21.10;59.60;;;;;;5186572;27;27479;-59
2021/07/22 01:48:18;;;;;;;7.40;5.63;;;21.10;59.70;;;;;;5171711;27;27471;-59
2021/07/22 01:51:07;;;;;;;9.18;5.15;;;21.00;59.60;;;;;;5186145;27;27142;-59
2021/07/22 01:53:53;;;;;;;8.73;5.43;;;21.00;59.40;;;;;;5186366;27;27563;-59
2021/07/22 01:56:38;;;;;;;7.07;5.15;;;21.00;59.60;;;;;;5186226;27;27375;-59
2021/07/22 01:59:24;;;;;;;8.23;5.28;;;21.00;59.60;;;;;;5190156;27;27358;-59
2021/07/22 02:02:11;;;;;;;7.60;5.15;;;21.00;59.60;;;;;;5186142;27;27334;-59
2021/07/22 02:04:56;;;;;;;8.95;5.35;;;21.00;59.70;;;;;;5188853;27;27411;-59
2021/07/22 02:07:40;;;;;;;6.13;4.78;;;21.00;59.70;;;;;;5172911;27;27467;-59
2021/07/22 02:10:25;;;;;;;9.15;5.53;;;20.90;59.70;;;;;;5171272;27;27346;-59
2021/07/22 02:13:11;;;;;;;7.20;4.70;;;20.90;59.80;;;;;;5186034;27;28016;-59
2021/07/22 02:16:06;;;;;;;5.90;5.20;;;20.90;59.60;;;;;;5185884;27;27405;-59
2021/07/22 02:18:51;;;;;;;6.88;5.18;;;20.80;59.80;;;;;;5170804;27;27265;-59
2021/07/22 02:21:42;;;;;;;8.63;5.53;;;20.80;59.90;;;;;;5171758;27;27373;-59
2021/07/22 02:24:28;;;;;;;5.57;4.65;;;20.80;59.90;;;;;;5185507;27;27322;-59
2021/07/22 02:27:24;;;;;;;7.03;5.50;;;20.70;59.70;;;;;;5185771;27;27388;-60
2021/07/22 02:30:11;;;;;;;7.60;5.75;;;20.70;59.90;;;;;;5171245;27;27312;-58
2021/07/22 02:32:56;;;;;;;6.30;4.72;;;20.70;59.80;;;;;;5189099;27;27323;-59
2021/07/22 02:35:41;;;;;;;8.07;5.30;;;20.70;60.00;;;;;;5157760;27;27323;-58
2021/07/22 02:38:32;;;;;;;7.25;5.47;;;20.70;60.00;;;;;;5184908;27;27404;-59
2021/07/22 02:41:18;;;;;;;10.82;5.88;;;20.60;59.90;;;;;;5189831;27;27342;-59
2021/07/22 02:44:04;;;;;;;6.95;5.30;;;20.60;60.70;;;;;;5185558;27;27387;-59
2021/07/22 02:46:52;;;;;;;6.82;5.30;;;20.60;60.00;;;;;;5171142;27;27480;-59
2021/07/22 02:49:38;;;;;;;7.25;5.55;;;20.60;59.90;;;;;;5188594;27;27455;-59
2021/07/22 02:52:22;;;;;;;8.98;5.50;;;20.60;60.00;;;;;;5188601;27;27476;-59
2021/07/22 02:55:10;;;;;;;8.90;5.25;;;20.50;59.90;;;;;;5185426;27;26947;-59
2021/07/22 02:57:55;;;;;;;8.95;5.22;;;20.50;60.20;;;;;;5185312;27;27405;-59
2021/07/22 03:00:41;;;;;;;7.13;5.38;;;20.50;60.10;;;;;;5170830;27;27422;-59
2021/07/22 03:03:27;;;;;;;8.15;4.65;;;20.50;60.20;;;;;;5170632;27;27324;-59
2021/07/22 03:06:16;;;;;;;8.20;5.05;;;20.40;60.00;;;;;;5173148;27;27786;-60
2021/07/22 03:09:06;;;;;;;10.18;5.00;;;20.40;60.10;;;;;;5170993;27;27392;-59
2021/07/22 03:11:57;;;;;;;8.77;5.35;;;20.40;60.00;;;;;;5170728;27;27428;-59
2021/07/22 03:14:43;;;;;;;8.38;4.88;;;20.30;60.30;;;;;;5170478;27;27429;-59
2021/07/22 03:17:28;;;;;;;6.57;5.50;;;20.30;60.20;;;;;;5184678;27;27449;-58
2021/07/22 03:20:18;;;;;;;6.40;5.05;;;20.30;60.30;;;;;;5189077;27;27387;-58
2021/07/22 03:23:10;;;;;;;8.88;5.28;;;20.20;60.40;;;;;;5184641;27;27620;-59
2021/07/22 03:25:59;;;;;;;5.47;4.72;;;20.20;60.60;;;;;;5184552;27;27315;-59
2021/07/22 03:28:57;;;;;;;8.45;5.32;;;20.10;60.70;;;;;;5184552;27;27324;-59
2021/07/22 03:31:46;;;;;;;6.60;5.20;;;20.10;61.20;;;;;;5187925;27;28037;-58
2021/07/22 03:34:31;;;;;;;8.68;5.20;;;20.10;61.00;;;;;;5154984;27;27468;-59
2021/07/22 03:37:30;;;;;;;7.25;4.90;;;20.10;61.00;;;;;;5171576;27;27388;-58
2021/07/22 03:40:16;;;;;;;7.80;5.20;;;20.10;61.20;;;;;;5184690;27;27404;-59
2021/07/22 03:43:01;;;;;;;7.60;5.10;;;20.10;61.10;;;;;;5188045;27;27407;-59
2021/07/22 03:46:00;;;;;;;10.63;5.10;;;20.10;61.10;;;;;;5188837;27;27593;-59
2021/07/22 03:48:47;;;;;;;7.90;5.40;;;20.10;61.30;;;;;;5184714;27;27427;-58
2021/07/22 03:51:35;;;;;;;10.25;5.47;;;20.00;61.30;;;;;;5169616;27;27410;-58
2021/07/22 03:54:21;;;;;;;7.82;5.90;;;20.00;61.30;;;;;;5170782;27;27335;-58
2021/07/22 03:57:07;;;;;;;6.95;4.82;;;20.00;61.40;;;;;;5169776;27;27497;-58
2021/07/22 03:59:52;;;;;;;7.55;5.47;;;20.00;61.50;;;;;;5169937;27;27487;-58
2021/07/22 04:02:37;;;;;;;11.90;5.68;;;20.00;61.60;;;;;;5188850;27;27402;-59
2021/07/22 04:05:23;;;;;;;11.13;5.90;;;20.00;61.40;;;;;;5171105;27;27505;-58
2021/07/22 04:08:09;;;;;;;7.90;5.53;;;20.00;61.70;;;;;;5184607;27;27453;-59
2021/07/22 04:11:06;;;;;;;7.30;4.75;;;20.00;61.80;;;;;;5171122;27;27430;-59
2021/07/22 04:14:00;;;;;;;6.90;5.47;;;20.00;61.90;;;;;;5188653;27;27389;-58
2021/07/22 04:16:51;;;;;;;9.40;5.00;;;20.00;61.90;;;;;;5170309;27;27364;-58
2021/07/22 04:19:54;;;;;;;9.90;5.68;;;20.00;61.90;;;;;;5187940;27;27449;-58
2021/07/22 04:22:59;;;;;;;9.48;5.55;;;20.00;61.90;;;;;;5184402;27;27326;-59
2021/07/22 04:25:53;;;;;;;7.10;4.80;;;20.00;62.00;;;;;;5174306;27;26928;-58
2021/07/22 04:28:41;;;;;;;9.85;5.40;;;20.00;62.10;;;;;;5184339;27;27404;-58
2021/07/22 04:31:26;;;;;;;9.07;5.60;;;19.90;62.10;;;;;;5184310;27;27502;-58
2021/07/22 04:34:22;;;;;;;10.73;5.78;;;20.00;62.40;;;;;;5188529;27;27456;-58
2021/07/22 04:37:28;;;;;;;7.45;5.85;;;19.90;62.40;;;;;;5184265;27;27474;-58
2021/07/22 04:40:31;;;;;;;7.57;5.05;;;19.90;62.40;;;;;;5188196;27;27306;-58
2021/07/22 04:43:35;;;;;;;13.43;6.20;;;20.00;62.30;;;;;;5187360;27;27399;-58
2021/07/22 04:46:38;;;;;;;7.13;5.22;;;20.00;62.40;;;;;;5188220;27;27314;-59
2021/07/22 04:49:41;;;;;;;12.50;5.47;;;20.00;62.70;;;;;;5186910;27;27451;-58
2021/07/22 04:53:01;;;;;;;8.43;5.63;;;20.00;62.70;;;;;;5159895;27;27463;-58
2021/07/22 04:55:53;;;;;;;10.98;6.07;;;20.00;62.80;;;;;;5183548;27;27571;-59
2021/07/22 04:58:39;;;;;;;8.15;5.70;;;20.00;63.00;;;;;;5154976;27;27323;-59
2021/07/22 05:01:33;;;;;;;7.45;5.18;;;20.00;63.10;;;;;;5188291;27;27394;-59
2021/07/22 05:04:18;;;;;;;6.63;5.35;;;20.00;63.20;;;;;;5187106;27;27850;-58
2021/07/22 05:07:13;;;;;;;12.48;5.65;;;20.00;63.30;;;;;;5187306;27;27322;-58
2021/07/22 05:10:01;;;;;;;7.35;5.97;;;20.00;63.30;;;;;;5187036;27;27333;-58
2021/07/22 05:12:57;;;;;;;8.73;5.75;;;20.00;63.40;;;;;;5187186;27;27376;-59
2021/07/22 05:15:55;;;;;;;7.10;5.55;;;20.00;63.50;;;;;;5191000;27;27422;-59
2021/07/22 05:19:00;;;;;;;8.38;6.05;;;20.00;63.40;;;;;;5187118;27;27408;-59
2021/07/22 05:21:57;;;;;;;7.57;5.80;;;20.10;63.70;;;;;;5191706;27;27393;-59
2021/07/22 05:24:57;;;;;;;7.32;6.05;;;20.00;63.70;;;;;;5191211;27;27326;-59
2021/07/22 05:27:48;;;;;;;13.20;6.13;;;20.10;64.00;;;;;;5186953;27;27359;-59
2021/07/22 05:31:08;;;;;;;10.20;6.78;;;20.10;64.20;;;;;;5163407;27;27439;-58
2021/07/22 05:33:57;;;;;;;11.02;7.28;;;20.20;64.00;;;;;;5191129;27;27350;-59
2021/07/22 05:36:58;;;;;;;10.90;6.28;;;20.20;64.30;;;;;;5161742;27;27462;-58
2021/07/22 05:39:49;;;;;;;8.77;7.18;;;20.20;64.10;;;;;;5190208;27;27386;-59
2021/07/22 05:42:44;;;;;;;10.93;7.68;;;20.30;64.20;;;;;;5171959;27;27583;-59
2021/07/22 05:45:28;;;;;;;11.85;6.95;;;20.30;64.20;;;;;;5191218;27;27342;-58
2021/07/22 05:48:13;;;;;;;11.55;7.68;;;20.40;63.80;;;;;;5190352;27;27368;-59
2021/07/22 05:51:00;;;;;;;11.93;8.10;;;20.40;64.00;;;;;;5189889;27;27398;-59
2021/07/22 05:53:45;;;;;;;9.68;6.93;;;20.50;63.80;;;;;;5190732;27;27399;-59
2021/07/22 05:56:29;;;;;;;10.20;6.93;;;20.60;64.40;;;;;;5186750;27;27429;-59
2021/07/22 05:59:14;;;;;;;12.27;7.68;;;20.60;64.50;;;;;;5189793;27;27398;-59
2021/07/22 06:01:58;;;;;;;9.65;6.97;;;20.60;64.60;;;;;;5190060;27;27936;-59
2021/07/22 06:04:43;;;;;;;9.27;7.55;;;20.70;64.60;;;;;;5190273;27;27396;-59
2021/07/22 06:07:28;;;;;;;11.35;7.93;;;20.80;64.60;;;;;;5190575;27;27318;-59
2021/07/22 06:10:13;;;;;;;11.82;8.23;;;20.90;64.60;;;;;;5190065;27;27321;-59
2021/07/22 06:12:58;;;;;;;10.02;7.35;;;20.90;64.10;;;;;;5190068;27;27330;-59
2021/07/22 06:15:43;;;;;;;14.73;8.02;;;21.00;64.10;;;;;;5189543;27;27319;-59
2021/07/22 06:18:28;;;;;;;13.95;8.45;;;21.10;64.00;;;;;;5189583;27;27399;-58
2021/07/22 06:21:14;;;;;;;11.60;7.65;;;21.10;64.10;;;;;;5189473;27;27410;-59
2021/07/22 06:23:59;;;;;;;12.13;8.00;;;21.10;64.20;;;;;;5190160;27;27362;-59
2021/07/22 06:26:44;;;;;;;12.95;8.18;;;21.30;64.00;;;;;;5190166;27;27348;-59
2021/07/22 06:29:30;;;;;;;11.13;8.15;;;21.40;63.60;;;;;;5189320;27;27391;-59
2021/07/22 06:32:15;;;;;;;11.48;8.05;;;21.60;63.80;;;;;;5190043;27;27334;-59
2021/07/22 06:35:00;;;;;;;9.57;7.78;;;21.80;63.60;;;;;;5190062;27;28019;-59
2021/07/22 06:37:45;;;;;;;10.82;8.15;;;22.00;63.60;;;;;;5170729;27;27414;-59
2021/07/22 06:40:31;;;;;;;10.35;8.30;;;22.30;63.30;;;;;;5190220;27;27314;-59
2021/07/22 06:43:15;;;;;;;12.38;8.85;;;22.40;63.20;;;;;;5189884;27;27317;-59
2021/07/22 06:46:00;;;;;;;12.13;8.70;;;22.60;63.00;;;;;;5189821;27;27859;-60
2021/07/22 06:48:47;;;;;;;12.90;7.45;;;22.80;62.80;;;;;;5189791;27;27339;-59
2021/07/22 06:51:32;;;;;;;12.02;8.32;;;22.90;62.50;;;;;;5188734;27;27362;-59
2021/07/22 06:54:16;;;;;;;12.77;8.68;;;23.10;62.60;;;;;;5189242;27;27345;-59
2021/07/22 06:57:00;;;;;;;13.80;8.32;;;23.20;62.50;;;;;;5188693;27;27389;-60
2021/07/22 06:59:45;;;;;;;13.65;7.43;;;23.40;62.30;;;;;;5185786;27;27384;-59
2021/07/22 07:02:30;;;;;;;14.85;8.05;;;23.50;61.70;;;;;;5189581;27;27387;-59
2021/07/22 07:05:15;;;;;;;10.85;8.02;;;23.60;62.00;;;;;;5186554;27;27390;-59
2021/07/22 07:07:59;;;;;;;10.52;7.53;;;23.80;61.90;;;;;;5186351;27;27859;-60
2021/07/22 07:10:44;;;;;;;16.00;8.55;;;23.90;61.70;;;;;;5189363;27;27506;-60
2021/07/22 07:13:28;;;;;;;11.90;8.15;;;24.00;61.70;;;;;;5189693;27;27338;-60
2021/07/22 07:16:13;;;;;;;11.90;8.15;;;24.10;61.40;;;;;;5188557;27;27466;-60
2021/07/22 07:18:58;;;;;;;9.57;7.95;;;24.30;61.80;;;;;;5188626;27;27865;-60
2021/07/22 07:21:43;;;;;;;13.82;8.18;;;24.40;62.50;;;;;;5189530;27;27451;-60
2021/07/22 07:24:28;;;;;;;12.43;7.93;;;24.60;61.40;;;;;;5189499;27;27373;-61
2021/07/22 07:27:16;;;;;;;10.30;7.80;;;24.70;61.20;;;;;;5187616;27;27351;-60
2021/07/22 07:30:01;;;;;;;12.60;7.68;;;24.90;61.20;;;;;;5189199;27;27366;-60
2021/07/22 07:32:46;;;;;;;13.93;8.43;;;25.00;61.60;;;;;;5184794;27;27412;-60
2021/07/22 07:35:31;;;;;;;12.50;7.53;;;25.20;61.00;;;;;;5188505;27;27380;-60
2021/07/22 07:38:17;;;;;;;14.63;7.18;;;25.40;60.50;;;;;;5189013;27;27391;-62
2021/07/22 07:41:01;;;;;;;9.40;7.85;;;25.50;60.60;;;;;;5189141;27;27863;-60
2021/07/22 07:43:46;;;;;;;11.32;7.78;;;25.70;60.20;;;;;;5188886;27;27322;-60
2021/07/22 07:46:31;;;;;;;12.20;7.03;;;25.90;59.50;;;;;;5188785;27;27330;-60
2021/07/22 07:49:16;;;;;;;11.52;7.82;;;26.00;59.10;;;;;;5187981;27;27410;-60
2021/07/22 07:52:01;;;;;;;13.15;6.90;;;26.20;59.10;;;;;;5188736;27;27330;-61
2021/07/22 07:54:52;;;;;;;8.35;6.55;;;26.30;59.20;;;;;;5188189;27;27362;-61
2021/07/22 07:57:36;;;;;;;9.25;7.13;;;26.50;58.60;;;;;;5188714;27;27385;-61
2021/07/22 08:00:21;;;;;;;9.20;7.15;;;26.70;57.90;;;;;;5169794;27;27398;-61
2021/07/22 08:03:06;;;;;;;10.25;6.75;;;26.80;57.90;;;;;;5188563;27;27419;-61
2021/07/22 08:05:51;;;;;;;9.77;6.65;;;27.00;58.00;;;;;;5172129;27;27479;-61
2021/07/22 08:08:36;;;;;;;9.50;6.35;;;27.20;57.60;;;;;;5188857;27;26915;-61
2021/07/22 08:11:21;;;;;;;11.05;6.38;;;27.40;57.30;;;;;;5169811;27;27398;-61
2021/07/22 08:14:05;;;;;;;8.65;6.95;;;27.60;57.10;;;;;;5188656;27;27401;-62
2021/07/22 08:16:50;;;;;;;7.57;6.55;;;27.70;56.90;;;;;;5184021;27;27460;-61
2021/07/22 08:19:35;;;;;;;7.70;5.88;;;27.90;56.70;;;;;;5187855;27;27409;-61
2021/07/22 08:22:20;;;;;;;9.15;6.55;;;28.10;56.70;;;;;;5169417;27;27442;-61
2021/07/22 08:25:05;;;;;;;7.57;6.55;;;28.30;56.00;;;;;;5188507;27;27940;-61
2021/07/22 08:27:49;;;;;;;9.70;6.70;;;28.50;56.10;;;;;;5187014;27;27405;-61
2021/07/22 08:30:34;;;;;;;10.07;6.35;;;28.60;55.80;;;;;;5187358;27;27474;-62
2021/07/22 08:33:19;;;;;;;9.15;6.32;;;28.80;54.70;;;;;;5188386;27;27435;-62
2021/07/22 08:36:04;;;;;;;8.52;6.28;;;28.90;54.50;;;;;;5188047;27;27384;-61
2021/07/22 08:38:49;;;;;;;8.05;6.47;;;29.10;54.00;;;;;;5187944;27;27439;-61
2021/07/22 08:41:35;;;;;;;10.35;6.28;;;29.20;53.50;;;;;;5184296;27;27420;-63
2021/07/22 08:44:20;;;;;;;7.28;6.57;;;29.40;53.20;;;;;;5187865;27;27479;-62
2021/07/22 08:47:06;;;;;;;8.45;6.32;;;29.50;54.00;;;;;;5187285;27;27429;-62
2021/07/22 08:49:50;;;;;;;9.65;6.60;;;29.50;52.80;;;;;;5187094;27;27440;-62
2021/07/22 08:52:34;;;;;;;8.98;6.80;;;29.60;52.60;;;;;;5187360;27;27459;-61
2021/07/22 08:55:20;;;;;;;11.73;7.30;;;29.80;52.30;;;;;;5169827;27;27417;-62
2021/07/22 08:58:04;;;;;;;13.50;7.63;;;29.90;52.00;;;;;;5186942;27;27976;-62
2021/07/22 09:00:49;;;;;;;13.52;6.95;;;30.00;52.80;;;;;;5187312;27;27491;-62
2021/07/22 09:03:34;;;;;;;12.43;7.05;;;30.20;53.60;;;;;;5183813;27;27436;-62
2021/07/22 09:06:19;;;;;;;7.20;6.10;;;30.30;53.80;;;;;;5186879;27;27432;-62
2021/07/22 09:09:15;;;;;;;7.15;6.07;;;30.40;53.80;;;;;;5187572;27;27482;-62
2021/07/22 09:12:01;;;;;;;9.50;6.68;;;30.60;52.60;;;;;;5186965;27;27413;-62
2021/07/22 09:14:46;;;;;;;11.13;6.85;;;30.70;52.30;;;;;;5171890;27;27490;-62
2021/07/22 09:17:30;;;;;;;8.02;7.22;;;30.70;52.90;;;;;;5171674;27;27420;-62
2021/07/22 09:20:29;;;;;;;8.50;6.47;;;30.80;52.70;;;;;;5187471;27;27528;-62
2021/07/22 09:23:24;;;;;;;7.38;6.13;;;31.00;52.70;;;;;;5186285;27;27648;-63
2021/07/22 09:26:08;;;;;;;9.77;6.45;;;31.20;53.50;;;;;;5187032;27;27391;-63
2021/07/22 09:29:05;;;;;;;8.43;6.28;;;31.30;51.20;;;;;;5187323;27;27386;-62
2021/07/22 09:31:50;;;;;;;10.63;7.15;;;31.50;50.90;;;;;;5186794;27;27346;-62
2021/07/22 09:34:34;;;;;;;11.18;7.20;;;31.50;50.50;;;;;;5187554;27;27407;-62
2021/07/22 09:37:24;;;;;;;7.72;6.93;;;31.60;51.50;;;;;;5187337;27;27395;-62
2021/07/22 09:40:09;;;;;;;15.15;6.88;;;31.60;50.20;;;;;;5186411;27;27486;-62
2021/07/22 09:42:54;;;;;;;8.88;6.90;;;31.70;50.50;;;;;;5187128;27;27473;-62
2021/07/22 09:45:40;;;;;;;10.10;6.97;;;31.80;49.70;;;;;;5186259;27;27425;-61
2021/07/22 09:48:25;;;;;;;10.82;7.57;;;31.80;49.40;;;;;;5172186;27;27460;-62
2021/07/22 09:51:09;;;;;;;9.23;7.10;;;31.80;48.30;;;;;;5190142;27;27482;-62
2021/07/22 09:54:09;;;;;;;10.32;6.75;;;31.80;48.60;;;;;;5175075;27;27472;-62
2021/07/22 09:56:54;;;;;;;10.43;7.78;;;31.90;50.00;;;;;;5190426;27;27484;-62
2021/07/22 09:59:40;;;;;;;9.73;7.07;;;32.00;48.90;;;;;;5190841;27;27379;-63
2021/07/22 10:02:25;;;;;;;8.88;7.68;;;32.00;48.70;;;;;;5190267;27;27333;-63
2021/07/22 10:05:10;;;;;;;9.75;6.47;;;32.00;48.20;;;;;;5189744;27;27386;-62
2021/07/22 10:07:55;;;;;;;10.88;6.53;;;32.00;49.10;;;;;;5190426;27;27350;-62
2021/07/22 10:10:42;;;;;;;7.60;6.80;;;32.10;50.10;;;;;;5190416;27;27395;-62
2021/07/22 10:13:38;;;;;;;9.60;6.60;;;32.30;50.00;;;;;;5190340;27;27383;-62
2021/07/22 10:16:23;;;;;;;8.32;6.95;;;32.40;49.40;;;;;;5185753;27;27923;-63
2021/07/22 10:19:08;;;;;;;9.70;7.28;;;32.50;48.20;;;;;;5189367;27;27429;-63
2021/07/22 10:21:53;;;;;;;11.20;7.07;;;32.60;48.60;;;;;;5160267;27;27468;-62
2021/07/22 10:24:38;;;;;;;8.80;6.20;;;32.70;48.40;;;;;;5190533;27;27504;-62
2021/07/22 10:27:24;;;;;;;9.07;7.47;;;32.80;48.10;;;;;;5174389;27;27445;-62
2021/07/22 10:30:16;;;;;;;9.63;7.53;;;32.80;48.50;;;;;;5156647;27;27441;-63
2021/07/22 10:33:10;;;;;;;9.05;7.40;;;32.90;48.70;;;;;;5175033;27;27400;-63
2021/07/22 10:35:55;;;;;;;9.38;6.35;;;33.10;47.70;;;;;;5189186;27;27318;-63
2021/07/22 10:38:47;;;;;;;8.35;7.50;;;33.10;46.60;;;;;;5189871;27;27319;-62
2021/07/22 10:41:35;;;;;;;15.60;8.63;;;33.00;44.80;;;;;;5174411;27;27410;-62
2021/07/22 10:44:40;;;;;;;8.88;7.07;;;33.00;45.40;;;;;;5171249;27;27358;-63
2021/07/22 10:47:24;;;;;;;9.88;7.43;;;32.90;45.60;;;;;;5145826;27;27433;-62
2021/07/22 10:50:09;;;;;;;8.23;6.00;;;32.90;46.00;;;;;;5131737;27;27852;-64
2021/07/22 10:53:00;;;;;;;9.25;7.03;;;32.90;47.00;;;;;;5146107;27;27366;-63
2021/07/22 10:55:46;;;;;;;9.23;7.15;;;33.00;47.30;;;;;;5146013;27;27488;-61
2021/07/22 10:58:30;;;;;;;7.75;7.05;;;33.00;46.50;;;;;;5145976;27;26921;-61
2021/07/22 11:01:36;;;;;;;8.07;7.28;;;33.10;47.00;;;;;;5145574;27;28050;-61
2021/07/22 11:04:36;;;;;;;11.02;7.68;;;33.20;46.40;;;;;;5133414;27;27505;-61
2021/07/22 11:07:20;;;;;;;10.88;7.43;;;33.20;47.30;;;;;;5146170;27;27413;-61
2021/07/22 11:10:05;;;;;;;9.63;7.05;;;33.30;47.40;;;;;;5131613;27;27436;-61
2021/07/22 11:12:55;;;;;;;9.88;7.60;;;33.30;47.40;;;;;;5128065;27;27405;-61
2021/07/22 11:15:45;;;;;;;9.98;7.25;;;33.30;47.10;;;;;;5145609;27;27511;-62
2021/07/22 11:18:44;;;;;;;9.77;7.80;;;33.40;46.90;;;;;;5145534;27;27369;-62
2021/07/22 11:21:36;;;;;;;8.30;7.50;;;33.40;46.40;;;;;;5145623;27;27366;-62
2021/07/22 11:24:25;;;;;;;10.77;8.05;;;33.40;45.90;;;;;;5158744;27;27449;-62
2021/07/22 11:27:10;;;;;;;9.55;7.10;;;33.50;46.80;;;;;;5189086;27;27412;-63
2021/07/22 11:30:09;;;;;;;13.38;8.73;;;33.50;46.60;;;;;;5189101;27;26918;-62
2021/07/22 11:32:54;;;;;;;11.20;9.02;;;33.50;47.10;;;;;;5173745;27;26931;-62
2021/07/22 11:35:38;;;;;;;12.27;8.32;;;33.50;47.20;;;;;;5173353;27;27354;-62
2021/07/22 11:38:23;;;;;;;10.25;7.88;;;33.50;47.00;;;;;;5173116;27;27424;-62
2021/07/22 11:41:12;;;;;;;9.88;7.45;;;33.50;46.30;;;;;;5189249;27;27336;-62
2021/07/22 11:44:01;;;;;;;12.48;7.85;;;33.60;46.40;;;;;;5189076;27;27322;-63
2021/07/22 11:46:46;;;;;;;12.88;7.75;;;33.60;46.80;;;;;;5188775;27;27429;-63
2021/07/22 11:49:34;;;;;;;11.48;8.02;;;33.60;46.90;;;;;;5187965;27;27471;-62
2021/07/22 11:52:27;;;;;;;10.05;8.40;;;33.60;46.40;;;;;;5188101;27;27429;-62
2021/07/22 11:55:12;;;;;;;9.80;8.35;;;33.60;46.90;;;;;;5187945;27;27445;-62
2021/07/22 11:57:57;;;;;;;11.27;8.55;;;33.60;46.90;;;;;;5188319;27;27862;-62
2021/07/22 12:00:42;;;;;;;13.95;9.00;;;33.70;47.10;;;;;;5188768;27;27409;-62
2021/07/22 12:03:27;;;;;;;13.60;8.55;;;33.70;46.50;;;;;;5173338;27;27495;-61
2021/07/22 12:06:11;;;;;;;11.10;8.10;;;33.70;45.90;;;;;;5187450;27;27401;-61
2021/07/22 12:09:06;;;;;;;11.88;8.88;;;33.70;46.20;;;;;;5184371;27;27924;-61
2021/07/22 12:11:55;;;;;;;11.50;8.38;;;33.70;46.90;;;;;;5186726;27;27466;-60
2021/07/22 12:14:40;;;;;;;11.98;9.18;;;33.60;46.30;;;;;;5188403;27;27387;-61
2021/07/22 12:17:25;;;;;;;10.23;8.23;;;33.60;46.80;;;;;;5187743;27;27361;-61
2021/07/22 12:20:10;;;;;;;9.20;8.20;;;33.60;47.30;;;;;;5187782;27;27434;-60
2021/07/22 12:22:55;;;;;;;9.63;8.55;;;33.50;46.40;;;;;;5172925;27;27373;-61
2021/07/22 12:25:58;;;;;;;11.32;9.35;;;33.30;46.30;;;;;;5187710;27;27358;-60
2021/07/22 12:28:44;;;;;;;11.00;9.00;;;33.00;46.20;;;;;;5187642;27;27372;-60
2021/07/22 12:31:40;;;;;;;10.88;8.65;;;32.80;46.80;;;;;;5188065;27;27366;-61
2021/07/22 12:34:24;;;;;;;11.30;8.38;;;32.80;48.00;;;;;;5172007;27;27387;-61
2021/07/22 12:37:09;;;;;;;10.55;8.88;;;32.80;47.60;;;;;;5187398;27;27297;-60
2021/07/22 12:40:08;;;;;;;11.55;8.65;;;32.90;47.40;;;;;;5187564;27;27380;-60
2021/07/22 12:42:57;;;;;;;10.27;8.73;;;33.00;47.00;;;;;;5187895;27;27413;-60
2021/07/22 12:45:43;;;;;;;11.38;9.10;;;33.00;47.40;;;;;;5184000;27;27540;-60
2021/07/22 12:48:38;;;;;;;15.77;7.93;;;33.10;47.50;;;;;;5188294;27;26906;-61
2021/07/22 12:51:23;;;;;;;12.13;8.57;;;33.10;47.60;;;;;;5187179;27;26924;-62
2021/07/22 12:54:14;;;;;;;12.88;8.63;;;33.10;47.40;;;;;;5186996;27;27334;-60
2021/07/22 12:57:01;;;;;;;10.55;9.13;;;33.10;46.10;;;;;;5187859;27;27465;-61
2021/07/22 12:59:46;;;;;;;9.65;8.65;;;32.90;45.90;;;;;;5188138;27;27457;-61
2021/07/22 13:02:31;;;;;;;12.98;9.18;;;32.70;46.60;;;;;;5186724;27;27425;-61
2021/07/22 13:05:16;;;;;;;11.73;9.55;;;32.50;46.80;;;;;;5186734;27;27637;-60
2021/07/22 13:08:02;;;;;;;14.50;9.02;;;32.30;46.50;;;;;;5187573;27;27600;-60
2021/07/22 13:10:50;;;;;;;12.98;9.13;;;32.10;46.70;;;;;;5187663;27;27519;-63
2021/07/22 13:13:46;;;;;;;14.23;9.82;;;31.90;46.40;;;;;;5186914;27;27550;-63
2021/07/22 13:16:46;;;;;;;16.27;9.90;;;31.70;46.50;;;;;;5169392;27;27447;-61
2021/07/22 13:19:38;;;;;;;12.45;9.65;;;31.60;46.70;;;;;;5159036;27;27429;-61
2021/07/22 13:22:36;;;;;;;10.95;8.60;;;31.40;47.60;;;;;;5172763;27;27480;-61
2021/07/22 13:25:26;;;;;;;16.10;9.63;;;31.20;47.50;;;;;;5158559;27;27384;-63
2021/07/22 13:28:17;;;;;;;11.05;8.52;;;31.20;49.10;;;;;;5190593;27;27318;-63
2021/07/22 13:31:25;;;;;;;10.02;8.35;;;31.10;48.50;;;;;;5172980;27;27395;-60
2021/07/22 13:34:21;;;;;;;11.88;7.90;;;31.20;49.70;;;;;;5191084;27;27399;-61
2021/07/22 13:37:18;;;;;;;11.13;8.95;;;31.30;50.40;;;;;;5190259;27;27454;-61
2021/07/22 13:40:18;;;;;;;13.00;9.40;;;31.40;49.90;;;;;;5190622;27;27854;-62
2021/07/22 13:43:24;;;;;;;12.88;9.50;;;31.50;49.90;;;;;;5190600;27;27408;-61
2021/07/22 13:46:14;;;;;;;14.30;8.90;;;31.60;49.30;;;;;;5175831;27;27392;-61
2021/07/22 13:49:13;;;;;;;9.93;8.93;;;31.70;49.40;;;;;;5186989;27;27410;-61
2021/07/22 13:52:10;;;;;;;9.98;8.98;;;31.90;49.60;;;;;;5189973;27;27385;-60
2021/07/22 13:55:03;;;;;;;13.73;9.38;;;32.00;48.40;;;;;;5190011;27;27371;-64
2021/07/22 13:58:02;;;;;;;10.52;8.15;;;32.00;48.30;;;;;;5175313;27;27523;-61
2021/07/22 14:01:07;;;;;;;9.95;8.95;;;32.00;47.90;;;;;;5171889;27;27482;-61
2021/07/22 14:04:33;;;;;;;10.70;8.95;;;32.00;48.40;;;;;;5180914;27;27445;-62
2021/07/22 14:07:35;;;;;;;9.52;8.32;;;32.10;48.40;;;;;;5154336;27;27482;-61
2021/07/22 14:15:32;;;;;;;11.50;8.63;;;32.20;47.20;;;;;;5165605;27;27390;-63
2021/07/22 14:18:59;;;;;;;10.32;8.93;;;32.20;47.50;;;;;;5145704;27;27376;-61
2021/07/22 14:21:51;;;;;;;10.65;8.65;;;32.20;47.20;;;;;;5151134;27;27387;-61
2021/07/22 14:24:43;;;;;;;10.85;9.57;;;32.20;47.40;;;;;;5168314;27;27666;-60
2021/07/22 14:27:33;;;;;;;11.90;9.32;;;32.20;47.10;;;;;;5154175;27;27414;-60
2021/07/22 14:30:47;;;;;;;11.48;8.93;;;32.20;47.20;;;;;;5153710;27;27350;-61
2021/07/22 14:33:42;;;;;;;10.43;8.88;;;32.10;47.30;;;;;;5168946;27;27341;-61
2021/07/22 14:36:45;;;;;;;9.00;8.10;;;32.10;48.10;;;;;;5168541;27;27355;-62
2021/07/22 14:39:40;;;;;;;11.68;8.80;;;32.20;48.30;;;;;;5168490;27;27413;-61
2021/07/22 14:43:04;;;;;;;10.07;8.07;;;32.20;48.70;;;;;;5168819;27;27416;-63